^^
Datos históricos de la estación: Murcia-Puente Tocinos
Diario Informe para Agosto 06, 2020 Unidades:  Ingés    Métrico   Ambas
Diario Semanal Mensual Anual
  Máxima: Mínima: Promedio:
Temperatura: 89.1 °F 75.2 °F 81.1 °F
Punto de rocio: 70.9 °F 61.2 °F 67.1 °F
Humedad: 85% 39.6% 65%
Velocidad viento: 11.4mph 0mph 5.3mph
Racha viento: 21mph - -
Viento- - Este
Presión: 30 in 29.9 in -
Precipitación: 0 in    
 
 
Tabla de datos para Agosto 06, 2020
Hora Temperatura Punto de rocio Presión Viento Velocidad viento Racha viento Humedad Intensidad lluvia(por hora) Nubes
00:04 77.7 °F 70 °F 29.9 in NE 4.7 mph 8 mph 77% 0 in
00:09 77.7 °F 70 °F 29.9 in NNE 4.7 mph 7 mph 77% 0 in
00:14 77.5 °F 69.8 °F 29.9 in NNE 4.6 mph 7.4 mph 77% 0 in
00:19 77.5 °F 70.2 °F 29.9 in NNE 4.3 mph 6.9 mph 78% 0 in
00:24 77.5 °F 70.2 °F 29.9 in NNE 4.5 mph 8.5 mph 78% 0 in
00:29 77.5 °F 70.2 °F 29.9 in NNE 5.2 mph 9 mph 78% 0 in
00:34 77.5 °F 70.2 °F 29.9 in NNE 5 mph 8 mph 78% 0 in
00:39 77.4 °F 70 °F 29.9 in NNE 4.3 mph 8.1 mph 78% 0 in
00:44 77.4 °F 70.2 °F 29.9 in NNE 4.5 mph 8 mph 78.8% 0 in
00:49 77.4 °F 70.3 °F 29.9 in NNE 5.2 mph 7 mph 79% 0 in
00:54 77.2 °F 70.2 °F 29.9 in NE 5.2 mph 8.5 mph 79% 0 in
00:59 77 °F 70.2 °F 29.9 in NNE 5.2 mph 9 mph 79% 0 in
01:04 76.8 °F 70.3 °F 29.9 in NNE 5.2 mph 8 mph 80% 0 in
01:09 76.8 °F 70.2 °F 29.9 in NNE 5.2 mph 7 mph 80% 0 in
01:14 76.6 °F 70.2 °F 29.9 in NNE 5 mph 8.1 mph 80% 0 in
01:19 76.6 °F 70 °F 29.9 in NE 4.3 mph 8 mph 80% 0 in
01:24 76.6 °F 70 °F 29.9 in NE 4 mph 6 mph 80% 0 in
01:29 76.6 °F 70 °F 29.9 in NNE 2.9 mph 5.2 mph 80% 0 in
01:34 76.6 °F 70 °F 29.9 in NNE 2.9 mph 5.8 mph 80% 0 in
01:39 76.5 °F 70 °F 29.9 in NNE 3.1 mph 6.2 mph 80.5% 0 in
01:44 76.5 °F 70.2 °F 29.9 in NNE 3.3 mph 6.2 mph 81% 0 in
01:49 76.5 °F 70.2 °F 29.9 in NNE 4 mph 6.4 mph 81% 0 in
01:54 76.3 °F 70 °F 29.9 in NNE 4.2 mph 7 mph 81% 0 in
01:59 76.3 °F 70 °F 29.9 in NNE 4.7 mph 7 mph 81% 0 in
02:04 76.3 °F 70 °F 29.9 in NNE 4.5 mph 6.9 mph 81% 0 in
02:09 76.1 °F 70 °F 29.9 in NE 4 mph 7 mph 81.6% 0 in
02:14 76.1 °F 70.2 °F 29.9 in NNE 4 mph 7 mph 82% 0 in
02:19 75.9 °F 70 °F 29.9 in NNE 4 mph 6 mph 82% 0 in
02:24 76.1 °F 70.2 °F 29.9 in NNE 3.9 mph 5.9 mph 82% 0 in
02:29 76.1 °F 70.2 °F 29.9 in NNE 3.6 mph 7.4 mph 82% 0 in
02:34 75.9 °F 70 °F 29.9 in NNE 3.7 mph 6.9 mph 82% 0 in
02:39 75.9 °F 70 °F 29.9 in NNE 4 mph 7 mph 82% 0 in
02:44 75.9 °F 70 °F 29.9 in NNE 3.9 mph 6 mph 82% 0 in
02:49 75.9 °F 70 °F 29.9 in NNE 3.6 mph 5.9 mph 82% 0 in
02:54 75.9 °F 70 °F 29.9 in NNE 3.6 mph 6.9 mph 82% 0 in
02:59 75.7 °F 70 °F 29.9 in NNE 3.6 mph 7 mph 82.3% 0 in
03:04 75.7 °F 70.2 °F 29.9 in NE 3.6 mph 6 mph 83% 0 in
03:09 75.6 °F 70 °F 29.9 in NE 3.6 mph 6 mph 83% 0 in
03:14 75.6 °F 70 °F 29.9 in NE 3.6 mph 6 mph 83% 0 in
03:19 75.6 °F 70.2 °F 29.9 in NNE 3.6 mph 6 mph 83.3% 0 in
03:24 75.6 °F 70.2 °F 29.9 in North 3.5 mph 6 mph 83.5% 0 in
03:29 75.7 °F 70.2 °F 29.9 in NNO 3.1 mph 5 mph 83% 0 in
03:34 75.7 °F 70.2 °F 29.9 in NNO 2.4 mph 2.4 mph 83% 0 in
03:39 75.6 °F 70 °F 29.9 in Calm   2.4 mph 83% 0 in
03:44 75.6 °F 70 °F 29.9 in NO 0.3 mph 2.4 mph 83% 0 in
03:49 75.6 °F 70 °F 29.9 in NO 1.4 mph 2.3 mph 83% 0 in
03:54 75.6 °F 70 °F 29.9 in NO 1.1 mph 2.4 mph 83% 0 in
03:59 75.7 °F 70.2 °F 29.9 in Calm   3.5 mph 83% 0 in
04:04 75.7 °F 70.2 °F 29.9 in NNE 0.2 mph 3 mph 83% 0 in
04:09 75.7 °F 70.3 °F 29.9 in NNE 1.4 mph 3.5 mph 83% 0 in
04:14 75.9 °F 70.3 °F 29.9 in NNE 1.5 mph 4.6 mph 83% 0 in
04:19 75.9 °F 70.3 °F 29.9 in NNE 1.8 mph 5 mph 83% 0 in
04:24 75.9 °F 70.3 °F 29.9 in NE 1.9 mph 5 mph 83% 0 in
04:29 75.9 °F 70.3 °F 29.9 in NE 2 mph 4 mph 83% 0 in
04:34 75.9 °F 70.3 °F 29.9 in North 1.6 mph 3.5 mph 83% 0 in
04:39 75.9 °F 70.3 °F 29.9 in Calm   3.6 mph 83% 0 in
04:44 75.9 °F 70.3 °F 29.9 in NO 0.3 mph 4 mph 83% 0 in
04:49 75.9 °F 70.3 °F 29.9 in NO 1.4 mph   83% 0 in
04:54 75.9 °F 70.3 °F 29.9 in NO 1.1 mph 2.9 mph 83% 0 in
04:59 75.9 °F 70.3 °F 29.9 in Calm   3 mph 83% 0 in
05:04 75.9 °F 70.3 °F 29.9 in NO 0.4 mph 3.6 mph 83% 0 in
05:09 75.7 °F 70.2 °F 29.9 in ONO 1.8 mph 4.6 mph 83% 0 in
05:14 75.7 °F 70.2 °F 29.9 in ONO 1.9 mph 5 mph 83% 0 in
05:19 75.7 °F 70.3 °F 29.9 in ONO 2.4 mph 5 mph 83.6% 0 in
05:24 75.6 °F 70.5 °F 29.9 in ONO 2.3 mph 3.6 mph 84% 0 in
05:29 75.6 °F 70.3 °F 29.9 in ONO 1.8 mph 4 mph 84% 0 in
05:34 75.6 °F 70.3 °F 29.9 in ONO 1.7 mph 3 mph 84% 0 in
05:39 75.6 °F 70.5 °F 29.9 in ONO 1.4 mph 3.5 mph 84% 0 in
05:44 75.7 °F 70.5 °F 29.9 in ONO 1.5 mph 3.6 mph 84% 0 in
05:49 75.7 °F 70.5 °F 29.9 in NO 1.8 mph 4 mph 84% 0 in
05:54 75.7 °F 70.5 °F 29.9 in NO 1.8 mph 4.6 mph 84% 0 in
05:59 75.6 °F 70.5 °F 29.9 in NO 1.8 mph 4.6 mph 84% 0 in
06:04 75.6 °F 70.3 °F 29.9 in ONO 1.9 mph 5 mph 84% 0 in
06:09 75.6 °F 70.3 °F 29.9 in Oeste 2 mph 4 mph 84% 0 in
06:14 75.6 °F 70.3 °F 29.9 in Oeste 2 mph 3.5 mph 84% 0 in
06:19 75.4 °F 70.2 °F 29.9 in Oeste 1.8 mph 3 mph 84% 0 in
06:24 75.4 °F 70.2 °F 29.9 in ONO 1.7 mph 3.5 mph 84% 0 in
06:29 75.4 °F 70.2 °F 29.9 in ONO 1.4 mph 3.5 mph 84% 0 in
06:34 75.4 °F 70.2 °F 29.9 in ONO 1.5 mph 3.5 mph 84% 0 in
06:39 75.4 °F 70.2 °F 29.9 in ONO 1.8 mph 3.5 mph 84% 0 in
06:44 75.2 °F 70 °F 29.9 in ONO 1.7 mph 3 mph 84% 0 in
06:49 75.2 °F 70 °F 29.9 in ONO 1.4 mph 2.9 mph 84% 0 in
06:54 75.2 °F 70.2 °F 29.9 in Oeste 1.5 mph 2.9 mph 84.5% 0 in
06:59 75.4 °F 70.5 °F 29.9 in Oeste 1.8 mph 3.1 mph 85% 0 in
07:04 75.4 °F 70.3 °F 29.9 in Oeste 1.7 mph 3 mph 84.3% 0 in
07:09 75.4 °F 70.2 °F 30 in OSO 1.4 mph 3.5 mph 84.1% 0 in
07:14 75.4 °F 70.2 °F 30 in SO 1.4 mph 2.4 mph 84% 0 in
07:19 75.4 °F 70.2 °F 30 in SO 1.4 mph 2 mph 84% 0 in
07:24 75.6 °F 70.3 °F 30 in SO 1.1 mph   84% 0 in
07:29 75.6 °F 70.3 °F 29.9 in Calm     84% 0 in
07:34 75.6 °F 70.3 °F 29.9 in Calm     84% 0 in
07:39 75.6 °F 70.3 °F 29.9 in Calm     84% 0 in
07:44 75.6 °F 70.5 °F 29.9 in Calm     84% 0 in
07:49 75.7 °F 70.5 °F 29.9 in Calm   4 mph 83.6% 0 in
07:54 75.6 °F 70.2 °F 30 in ESE 0.2 mph 5 mph 83% 0 in
07:59 75.7 °F 70 °F 30 in SE 1.4 mph 4.6 mph 82.2% 0 in
08:04 75.7 °F 70.2 °F 30 in Sur 1.6 mph 5 mph 82.8% 0 in
08:09 76.1 °F 70.5 °F 30 in SSO 2 mph 4 mph 83% 0 in
08:14 76.3 °F 70.5 °F 30 in SO 1.9 mph 3.6 mph 82.1% 0 in
08:19 76.3 °F 70.5 °F 30 in OSO 1.4 mph 4 mph 82% 0 in
08:24 76.6 °F 70.9 °F 30 in ONO 1.5 mph 4.6 mph 82.3% 0 in
08:29 77 °F 70.7 °F 30 in NNO 1.8 mph 5 mph 81.1% 0 in
08:34 77.4 °F 70.7 °F 30 in North 1.8 mph 4 mph 80.3% 0 in
08:39 77.5 °F 70.9 °F 30 in NNO 1.8 mph 4 mph 79.8% 0 in
08:44 77.9 °F 70.7 °F 30 in NNO 1.9 mph 4.6 mph 78.6% 0 in
08:49 78.1 °F 70.7 °F 30 in NNE 2 mph 5 mph 77.7% 0 in
08:54 78.3 °F 70.5 °F 30 in NNE 2.1 mph 4 mph 77.1% 0 in
08:59 78.4 °F 70.5 °F 30 in NNE 2.4 mph 5 mph 77% 0 in
09:04 78.6 °F 70.7 °F 30 in NNE 2.4 mph 5 mph 76.8% 0 in
09:09 78.8 °F 70.7 °F 30 in North 2.4 mph 5 mph 76% 0 in
09:14 79.2 °F 70.7 °F 30 in NO 2.2 mph 3 mph 75.7% 0 in
09:19 79.3 °F 70.7 °F 30 in North 1.8 mph 4.7 mph 74.9% 0 in
09:24 79.5 °F 70.5 °F 30 in NNE 1.9 mph 5.8 mph 74.1% 0 in
09:29 79.5 °F 70.5 °F 30 in NE 2 mph 6 mph 74% 0 in
09:34 79.5 °F 70.5 °F 30 in NNE 2.2 mph 5.8 mph 74% 0 in
09:39 79.5 °F 70.5 °F 30 in NE 3.1 mph 8.1 mph 74% 0 in
09:44 79.3 °F 70.3 °F 30 in NNE 3.3 mph 8 mph 74% 0 in
09:49 79 °F 70 °F 30 in North 4 mph 7.4 mph 74.1% 0 in
09:54 79.2 °F 70.2 °F 30 in North 4 mph 7.4 mph 74% 0 in
09:59 79.2 °F 70 °F 30 in NNE 4 mph 9.2 mph 73.5% 0 in
10:04 79 °F 69.4 °F 30 in NE 4.2 mph 9 mph 72.8% 0 in
10:09 79 °F 69.3 °F 30 in NE 4.7 mph 8.5 mph 71.9% 0 in
10:14 79.2 °F 69.1 °F 30 in NE 4.7 mph 9.2 mph 71.5% 0 in
10:19 79.3 °F 69.1 °F 30 in NE 4.7 mph 9.7 mph 71% 0 in
10:24 79.7 °F 69.3 °F 30 in North 4.8 mph 10 mph 70.5% 0 in
10:29 80.1 °F 69.1 °F 30 in NE 5.2 mph 10.4 mph 69.2% 0 in
10:34 80.2 °F 68.7 °F 30 in North 5 mph 10 mph 68.3% 0 in
10:39 80.8 °F 69.4 °F 30 in NE 4.3 mph 8 mph 68.7% 0 in
10:44 81.1 °F 68.9 °F 30 in NNE 4.3 mph 10.4 mph 66.6% 0 in
10:49 81.1 °F 68.7 °F 30 in NNE 4.3 mph 11.5 mph 65.9% 0 in
10:54 81.1 °F 68.5 °F 30 in North 4.6 mph 12 mph 65.4% 0 in
10:59 81.1 °F 68.5 °F 30 in North 5.9 mph 10 mph 65.5% 0 in
11:04 81.3 °F 68.7 °F 30 in NO 5.4 mph 9 mph 65.3% 0 in
11:09 81.7 °F 69.1 °F 30 in North 4 mph 8.5 mph 65.8% 0 in
11:14 81.9 °F 68.9 °F 30 in North 4 mph 9 mph 64.7% 0 in
11:19 82 °F 68.5 °F 30 in Oeste 4 mph 6.9 mph 63.9% 0 in
11:24 82 °F 68.4 °F 30 in NNE 3.8 mph 8.7 mph 63% 0 in
11:29 82.4 °F 68 °F 30 in NNE 2.9 mph 10 mph 62.1% 0 in
11:34 82.8 °F 68 °F 30 in Sur 3.2 mph 10.7 mph 61.3% 0 in
11:39 82.9 °F 67.8 °F 30 in NNE 4.7 mph 11 mph 60.5% 0 in
11:44 82.9 °F 67.6 °F 30 in NNE 5 mph 11 mph 60.2% 0 in
11:49 82.9 °F 67.8 °F 30 in NNE 6.4 mph 11.4 mph 60.1% 0 in
11:54 83.5 °F 68 °F 30 in North 6.2 mph 11.2 mph 59.7% 0 in
11:59 83.7 °F 67.5 °F 30 in NE 5.2 mph 12 mph 58.3% 0 in
12:04 83.8 °F 67.1 °F 30 in North 5.5 mph 12.7 mph 57.3% 0 in
12:09 83.8 °F 67.3 °F 30 in NNE 6.4 mph 13 mph 57.5% 0 in
12:14 84.2 °F 67.1 °F 30 in NNE 6.1 mph 11 mph 56.7% 0 in
12:19 84.6 °F 67.1 °F 30 in NE 4.7 mph 11.5 mph 55.9% 0 in
12:24 84.7 °F 67.5 °F 30 in NNE 4.8 mph 12 mph 56.4% 0 in
12:29 85.1 °F 67.1 °F 30 in NNE 5.4 mph 10.4 mph 55.1% 0 in
12:34 85.5 °F 66.7 °F 30 in ENE 5.5 mph 11.5 mph 53.6% 0 in
12:39 86 °F 65.5 °F 30 in NE 5.9 mph 12 mph 50.4% 0 in
12:44 86.2 °F 65.1 °F 30 in NNE 5.8 mph 11.4 mph 49.6% 0 in
12:49 86.2 °F 63.5 °F 30 in NE 5.2 mph 14 mph 46.8% 0 in
12:54 86.2 °F 63.7 °F 30 in Este 5.7 mph 14 mph 47% 0 in
12:59 86.4 °F 63.3 °F 30 in ENE 7.6 mph 14 mph 46.5% 0 in
13:04 86.4 °F 63.1 °F 30 in NNE 7.3 mph 14 mph 45.8% 0 in
13:09 86.5 °F 62.6 °F 30 in North 6.2 mph 12 mph 44.7% 0 in
13:14 86.7 °F 62.6 °F 30 in NE 6.2 mph 12 mph 44.5% 0 in
13:19 86.9 °F 62.4 °F 30 in NNE 6.4 mph 12.7 mph 44.1% 0 in
13:24 86.9 °F 63 °F 30 in NNE 6.6 mph 13.8 mph 45% 0 in
13:29 87.1 °F 62.2 °F 30 in NNE 7.4 mph 14 mph 43.7% 0 in
13:34 87.3 °F 62.6 °F 30 in NNE 7.6 mph 14 mph 43.8% 0 in
13:39 87.6 °F 62.6 °F 30 in NNE 8.1 mph 13.8 mph 43.5% 0 in
13:44 87.4 °F 63.3 °F 30 in NE 8 mph 14 mph 44.5% 0 in
13:49 87.6 °F 63.3 °F 30 in NNE 7.4 mph 17.3 mph 44.6% 0 in
13:54 87.4 °F 62.8 °F 30 in NE 7.8 mph 17.3 mph 44% 0 in
13:59 87.4 °F 62.8 °F 30 in NNE 8.7 mph 16 mph 43.9% 0 in
14:04 87.6 °F 62.1 °F 30 in NNE 8.9 mph 16.3 mph 42.6% 0 in
14:09 87.4 °F 61.9 °F 30 in NNE 9.7 mph 17.5 mph 42.5% 0 in
14:14 87.4 °F 61.7 °F 30 in NNE 9.5 mph 17 mph 42.3% 0 in
14:19 87.6 °F 62.1 °F 30 in NE 8.7 mph 15 mph 42.5% 0 in
14:24 88.3 °F 62.2 °F 30 in NE 8.4 mph 18.5 mph 41.8% 0 in
14:29 88.7 °F 61.7 °F 30 in NE 7.4 mph 19 mph 40.7% 0 in
14:34 88.5 °F 61.7 °F 30 in NE 7.8 mph 18 mph 40.7% 0 in
14:39 88.9 °F 61.7 °F 30 in NNE 9.7 mph 17 mph 40.6% 0 in
14:44 88.3 °F 61.5 °F 30 in NNE 9.6 mph 17.3 mph 40.6% 0 in
14:49 88.2 °F 61.3 °F 30 in NNE 9.2 mph 16.1 mph 40.7% 0 in
14:54 88.3 °F 61.3 °F 30 in NNE 9.3 mph 16.1 mph 40.7% 0 in
14:59 88.5 °F 61.7 °F 30 in NNE 9.7 mph 17.3 mph 40.9% 0 in
15:04 88.5 °F 62.2 °F 30 in NNE 9.6 mph 17 mph 41.7% 0 in
15:09 88.7 °F 62.2 °F 30 in NNE 9.2 mph 15.9 mph 41.3% 0 in
15:14 88.9 °F 61.7 °F 30 in NNE 9.1 mph 18.5 mph 40.4% 0 in
15:19 88.7 °F 61.7 °F 30 in NE 8.7 mph 19 mph 40.5% 0 in
15:24 88.7 °F 62.1 °F 30 in NE 8.9 mph 19 mph 41% 0 in
15:29 88.7 °F 62.1 °F 30 in NE 10 mph 19 mph 41.1% 0 in
15:34 88.5 °F 62.1 °F 30 in NNE 10.1 mph 18.4 mph 41.4% 0 in
15:39 88.5 °F 62.4 °F 30 in NNE 10.7 mph 18 mph 41.8% 0 in
15:44 88.9 °F 62.2 °F 29.9 in NNE 10.6 mph 18.5 mph 41% 0 in
15:49 88.9 °F 62.1 °F 29.9 in NE 10 mph 19 mph 41% 0 in
15:54 88.7 °F 62.1 °F 29.9 in NE 10.2 mph 18 mph 41% 0 in
15:59 88.9 °F 62.1 °F 29.9 in NE 10.7 mph 19 mph 41% 0 in
16:04 88.7 °F 62.1 °F 29.9 in NE 10.5 mph 20.1 mph 41% 0 in
16:09 88.5 °F 61.3 °F 29.9 in NNE 10 mph 20 mph 40.1% 0 in
16:14 88.3 °F 61.5 °F 29.9 in NNE 10.1 mph 19 mph 40.7% 0 in
16:19 88.9 °F 61.3 °F 29.9 in NNE 10.2 mph 18.4 mph 40% 0 in
16:24 88.9 °F 61.5 °F 29.9 in NE 10.1 mph 18 mph 40.1% 0 in
16:29 89.1 °F 61.3 °F 29.9 in NE 10 mph 18.4 mph 39.6% 0 in
16:34 88.7 °F 61.3 °F 29.9 in NE 10.2 mph 18.4 mph 40% 0 in
16:39 88.5 °F 61.5 °F 29.9 in NE 10.7 mph 19 mph 40.6% 0 in
16:44 88.7 °F 61.3 °F 29.9 in NNE 10.8 mph 19 mph 40.1% 0 in
16:49 88.9 °F 61.7 °F 29.9 in NE 11.2 mph 18 mph 40.4% 0 in
16:54 88.9 °F 61.7 °F 29.9 in NE 10.7 mph 16 mph 40.5% 0 in
16:59 88.5 °F 61.7 °F 29.9 in NE 8.7 mph 16.1 mph 40.9% 0 in
17:04 88.5 °F 61.9 °F 29.9 in NE 8.9 mph 16.1 mph 41% 0 in
17:09 88.7 °F 61.9 °F 29.9 in NE 9.7 mph 18.4 mph 41% 0 in
17:14 89.1 °F 61.7 °F 29.9 in NE 9.7 mph 18 mph 40.2% 0 in
17:19 88.7 °F 61.7 °F 29.9 in NNE 9.7 mph 17 mph 40.6% 0 in
17:24 88.3 °F 61.7 °F 29.9 in NNE 9.6 mph 15 mph 41% 0 in
17:29 88.5 °F 61.9 °F 29.9 in ENE 9.2 mph 15 mph 41.1% 0 in
17:34 88.9 °F 61.9 °F 29.9 in NE 8.8 mph 15 mph 40.6% 0 in
17:39 89.1 °F 61.7 °F 29.9 in NE 7.4 mph 17.8 mph 40.1% 0 in
17:44 88.3 °F 61.2 °F 29.9 in NE 7.9 mph 19.7 mph 40.2% 0 in
17:49 88.2 °F 61.3 °F 29.9 in NE 9.7 mph 20 mph 40.8% 0 in
17:54 88.2 °F 62.2 °F 29.9 in NNE 9.4 mph 16.1 mph 41.9% 0 in
17:59 88.2 °F 62.2 °F 29.9 in NNE 8.5 mph 20.8 mph 42% 0 in
18:04 87.6 °F 62.4 °F 29.9 in NE 9 mph 21 mph 43% 0 in
18:09 87.4 °F 63 °F 29.9 in NE 11.4 mph 19 mph 44% 0 in
18:14 87.3 °F 62.4 °F 29.9 in NNE 11.4 mph 20.7 mph 43.6% 0 in
18:19 87.1 °F 63 °F 29.9 in NE 11.4 mph 21 mph 44.5% 0 in
18:24 87.1 °F 62.4 °F 29.9 in NNE 11.3 mph 18.5 mph 44% 0 in
18:29 86.9 °F 62.8 °F 29.9 in NNE 10.7 mph 19 mph 44.6% 0 in
18:34 86.7 °F 62.6 °F 29.9 in NNE 10.7 mph 19 mph 44.8% 0 in
18:39 86.7 °F 62.8 °F 29.9 in NNE 10.7 mph 19 mph 45% 0 in
18:44 86.4 °F 63.1 °F 29.9 in NNE 10.8 mph 19.7 mph 45.9% 0 in
18:49 86.2 °F 63.5 °F 29.9 in NNE 11.2 mph 20 mph 46.9% 0 in
18:54 86.2 °F 64.2 °F 29.9 in NE 10.9 mph 17 mph 48% 0 in
18:59 86.4 °F 63.9 °F 29.9 in NNE 9.7 mph 17.5 mph 47.1% 0 in
19:04 85.8 °F 64.4 °F 29.9 in NNE 9.8 mph 20.8 mph 48.7% 0 in
19:09 85.6 °F 64.2 °F 29.9 in NNE 10 mph 21 mph 48.9% 0 in
19:14 85.5 °F 64 °F 29.9 in NE 10.1 mph 17 mph 48.7% 0 in
19:19 85.6 °F 64.2 °F 29.9 in NE 10.2 mph 17 mph 49.1% 0 in
19:24 85.5 °F 64.8 °F 29.9 in NNE 9.9 mph 17.3 mph 50.1% 0 in
19:29 85.1 °F 64.4 °F 29.9 in NE 8.7 mph 17 mph 50.3% 0 in
19:34 84.7 °F 64.8 °F 29.9 in NNE 8.9 mph 16.1 mph 51% 0 in
19:39 84.7 °F 64.4 °F 29.9 in NNE 9.7 mph 17.3 mph 50.8% 0 in
19:44 84.6 °F 64.2 °F 29.9 in NNE 9.7 mph 17 mph 50.9% 0 in
19:49 84.6 °F 63.9 °F 29.9 in NNE 9.7 mph 17.3 mph 50.1% 0 in
19:54 84.4 °F 64.6 °F 29.9 in NNE 9.4 mph 13.8 mph 51.6% 0 in
19:59 84.2 °F 64.6 °F 29.9 in NNE 8.1 mph 14 mph 52% 0 in
20:04 84 °F 64.6 °F 29.9 in NE 7.9 mph 14 mph 52% 0 in
20:09 84 °F 64.2 °F 29.9 in NE 6.9 mph 15 mph 51.6% 0 in
20:14 84 °F 64.9 °F 29.9 in NE 6.9 mph 15 mph 52.8% 0 in
20:19 83.7 °F 64.4 °F 29.9 in NNE 6.9 mph 16.3 mph 52.4% 0 in
20:24 83.3 °F 64.2 °F 29.9 in NE 7.3 mph 16 mph 52.7% 0 in
20:29 83.1 °F 65.1 °F 29.9 in NE 9.2 mph 14 mph 54.6% 0 in
20:34 82.9 °F 65.5 °F 29.9 in NNE 8.9 mph 16.1 mph 55.7% 0 in
20:39 82.8 °F 65.7 °F 30 in NNE 7.6 mph 16 mph 56.6% 0 in
20:44 82.6 °F 66.2 °F 30 in NE 7.6 mph 14 mph 58% 0 in
20:49 82.2 °F 66 °F 30 in NE 7.4 mph 14 mph 58% 0 in
20:54 82 °F 65.8 °F 30 in NE 7.3 mph 14 mph 58% 0 in
20:59 81.9 °F 65.8 °F 30 in NNE 6.9 mph 13 mph 58.4% 0 in
21:04 81.7 °F 66 °F 30 in NNE 6.8 mph 12 mph 59.2% 0 in
21:09 81.5 °F 66.2 °F 30 in NE 6.4 mph 11.5 mph 60% 0 in
21:14 81.1 °F 66.4 °F 30 in NNE 6.5 mph 12 mph 60.8% 0 in
21:19 81.1 °F 66.4 °F 30 in NE 6.9 mph 10 mph 61% 0 in
21:24 81 °F 66.6 °F 30 in NE 6.6 mph 10.4 mph 61.7% 0 in
21:29 80.8 °F 66.9 °F 30 in NNE 5.2 mph 10.4 mph 62.8% 0 in
21:34 80.6 °F 67.1 °F 30 in NNE 5.3 mph 9 mph 63.7% 0 in
21:39 80.4 °F 67.1 °F 30 in NE 5.9 mph 10.4 mph 64% 0 in
21:44 80.2 °F 67.3 °F 30 in NE 6 mph 10 mph 64.6% 0 in
21:49 80.1 °F 67.3 °F 30 in NNE 6.2 mph 9 mph 65% 0 in
21:54 80.1 °F 67.6 °F 30 in NNE 5.8 mph 7 mph 65.9% 0 in
21:59 80.1 °F 67.8 °F 30 in NNE 4.3 mph 7.4 mph 66.4% 0 in
22:04 79.9 °F 67.8 °F 30 in NE 4.3 mph 7 mph 67% 0 in
22:09 79.9 °F 68.2 °F 30 in NNE 4.3 mph 7 mph 67.5% 0 in
22:14 79.7 °F 68.2 °F 30 in NE 4.3 mph 9.2 mph 68% 0 in
22:19 79.5 °F 68 °F 30 in NNE 4.7 mph 8.5 mph 68% 0 in
22:24 79.5 °F 68 °F 30 in NE 4.5 mph 9 mph 68% 0 in
22:29 79.3 °F 68.2 °F 30 in NE 4 mph 9.7 mph 68.8% 0 in
22:34 79.2 °F 68.2 °F 30 in NE 4.3 mph 10 mph 69% 0 in
22:39 79.2 °F 68 °F 30 in NE 5.2 mph 8.1 mph 69% 0 in
22:44 79 °F 68.4 °F 30 in NNE 5.1 mph 8 mph 69.8% 0 in
22:49 79 °F 68.4 °F 30 in NNE 4.7 mph 7 mph 70% 0 in
22:54 79 °F 68.4 °F 30 in NNE 4.6 mph 7.4 mph 70% 0 in
22:59 78.8 °F 68.7 °F 30 in NNE 4 mph 8.1 mph 71% 0 in
23:04 78.6 °F 68.4 °F 30 in NNE 4.3 mph 8.1 mph 71% 0 in
23:09 78.4 °F 68.4 °F 30 in NNE 5.2 mph 8.1 mph 71% 0 in
23:14 78.3 °F 68.4 °F 30 in NNE 5.2 mph 8 mph 71.4% 0 in
23:19 78.3 °F 68.5 °F 30 in NNE 5.2 mph 7 mph 72% 0 in
23:24 78.1 °F 68.5 °F 30 in NNE 5 mph 7 mph 72.4% 0 in
23:29 78.1 °F 68.7 °F 30 in NNE 4.3 mph 7 mph 73% 0 in
23:34 78.1 °F 68.5 °F 30 in NNE 4.2 mph 7 mph 73% 0 in
23:39 77.9 °F 68.5 °F 30 in NNE 4 mph 6 mph 73% 0 in
23:44 77.9 °F 68.7 °F 30 in NNE 3.9 mph 6 mph 73.7% 0 in
23:49 77.7 °F 68.7 °F 30 in NNE 3.6 mph 5.9 mph 74% 0 in
23:54 77.7 °F 68.7 °F 30 in NNE 3.6 mph 6 mph 74% 0 in
23:59 77.7 °F 68.9 °F 30 in NE 3.6 mph 6 mph 74% 0 in
Murcia-Puente Tocinos, España
Compliments of Weather Underground - 3 mb

La estación de MeteoMurcia.com, publica sus datos en los siguientes proyectos:

Weather Underground PWS IMURCIAP2 Meteoclimatic www.awekas.at

W3Counter
Web Analytics